createdAt,value
2018-09-05T00:00:11.244Z,1010.11
2018-09-05T00:01:11.267Z,1010.14
2018-09-05T00:02:11.241Z,1010.13
2018-09-05T00:03:11.216Z,1010.09
2018-09-05T00:04:11.511Z,1010.08
2018-09-05T00:05:11.193Z,1010.09
2018-09-05T00:06:11.197Z,1010.08
2018-09-05T00:07:11.168Z,1010.06
2018-09-05T00:08:11.171Z,1010.07
2018-09-05T00:09:11.168Z,1010.06
2018-09-05T00:10:11.160Z,1010.07
2018-09-05T00:11:11.126Z,1010.07
2018-09-05T00:12:11.114Z,1010.08
2018-09-05T00:13:11.112Z,1010.11
2018-09-05T00:14:11.183Z,1010.07
2018-09-05T00:15:11.171Z,1010.10
2018-09-05T00:16:11.101Z,1010.13
2018-09-05T00:17:11.061Z,1010.11
2018-09-05T00:18:11.050Z,1010.11
2018-09-05T00:19:11.046Z,1010.14
2018-09-05T00:20:11.082Z,1010.10
2018-09-05T00:21:11.030Z,1010.05
2018-09-05T00:22:11.041Z,1010.06
2018-09-05T00:23:10.996Z,1010.07
2018-09-05T00:24:11.026Z,1010.06
2018-09-05T00:25:10.987Z,1010.06
2018-09-05T00:26:10.990Z,1010.07
2018-09-05T00:27:10.962Z,1010.05
2018-09-05T00:28:10.955Z,1010.02
2018-09-05T00:29:10.953Z,1010.04
2018-09-05T00:30:10.932Z,1010.02
2018-09-05T00:31:10.978Z,1010.03
2018-09-05T00:32:10.925Z,1010.00
2018-09-05T00:33:10.893Z,1009.97
2018-09-05T00:34:10.894Z,1009.96
2018-09-05T00:35:10.900Z,1009.97
2018-09-05T00:36:10.859Z,1009.98
2018-09-05T00:37:10.879Z,1009.98
2018-09-05T00:38:10.840Z,1009.98
2018-09-05T00:39:10.843Z,1009.97
2018-09-05T00:40:10.832Z,1009.99
2018-09-05T00:41:10.817Z,1010.01
2018-09-05T00:42:10.837Z,1009.95
2018-09-05T00:43:10.801Z,1010.01
2018-09-05T00:44:10.784Z,1010.02
2018-09-05T00:45:10.800Z,1009.98
2018-09-05T00:46:10.771Z,1009.98
2018-09-05T00:47:10.809Z,1010.00
2018-09-05T00:48:10.761Z,1009.97
2018-09-05T00:49:10.725Z,1009.97
2018-09-05T00:50:10.742Z,1009.92
2018-09-05T00:51:10.714Z,1009.93
2018-09-05T00:52:10.708Z,1009.96
2018-09-05T00:53:10.737Z,1009.99
2018-09-05T00:54:10.673Z,1009.99
2018-09-05T00:55:10.668Z,1009.98
2018-09-05T00:56:10.671Z,1010.00
2018-09-05T00:57:10.643Z,1009.99
2018-09-05T00:58:10.651Z,1009.99
2018-09-05T00:59:10.660Z,1009.97
2018-09-05T01:00:10.611Z,1009.98
2018-09-05T01:01:10.594Z,1009.99
2018-09-05T01:02:10.598Z,1009.99
2018-09-05T01:03:10.577Z,1010.02
2018-09-05T01:04:10.594Z,1010.03
2018-09-05T01:05:10.555Z,1010.03
2018-09-05T01:06:10.548Z,1010.04
2018-09-05T01:07:10.539Z,1010.00
2018-09-05T01:08:10.569Z,1010.02
2018-09-05T01:09:10.518Z,1010.01
2018-09-05T01:10:10.534Z,1009.97
2018-09-05T01:11:10.513Z,1009.94
2018-09-05T01:12:10.479Z,1009.94
2018-09-05T01:13:10.468Z,1009.92
2018-09-05T01:14:10.494Z,1009.95
2018-09-05T01:15:10.520Z,1009.99
2018-09-05T01:16:10.461Z,1009.98
2018-09-05T01:17:10.490Z,1009.99
2018-09-05T01:18:10.415Z,1009.99
2018-09-05T01:19:10.405Z,1009.99
2018-09-05T01:20:10.405Z,1009.98
2018-09-05T01:21:10.414Z,1010.01
2018-09-05T01:22:10.409Z,1010.01
2018-09-05T01:23:10.378Z,1010.00
2018-09-05T01:24:10.381Z,1010.03
2018-09-05T01:25:10.344Z,1010.04
2018-09-05T01:26:10.367Z,1010.06
2018-09-05T01:27:10.323Z,1010.08
2018-09-05T01:28:10.323Z,1010.08
2018-09-05T01:29:10.311Z,1010.05
2018-09-05T01:30:10.292Z,1010.07
2018-09-05T01:31:10.291Z,1010.09
2018-09-05T01:32:10.319Z,1010.03
2018-09-05T01:33:10.269Z,1010.05
2018-09-05T01:34:10.264Z,1010.09
2018-09-05T01:35:10.239Z,1010.09
2018-09-05T01:36:10.268Z,1010.08
2018-09-05T01:37:10.253Z,1010.13
2018-09-05T01:38:10.234Z,1010.14
2018-09-05T01:39:10.237Z,1010.13
2018-09-05T01:40:10.202Z,1010.12
2018-09-05T01:41:10.182Z,1010.12
2018-09-05T01:42:10.234Z,1010.13
2018-09-05T01:43:10.154Z,1010.15
2018-09-05T01:44:10.182Z,1010.13
2018-09-05T01:45:10.133Z,1010.12
2018-09-05T01:46:10.129Z,1010.10
2018-09-05T01:47:10.142Z,1010.14
2018-09-05T01:48:10.124Z,1010.13
2018-09-05T01:49:10.092Z,1010.11
2018-09-05T01:50:10.083Z,1010.11
2018-09-05T01:51:10.145Z,1010.12
2018-09-05T01:52:10.061Z,1010.13
2018-09-05T01:53:10.098Z,1010.15
2018-09-05T01:54:10.044Z,1010.16
2018-09-05T01:55:10.027Z,1010.19
2018-09-05T01:56:10.016Z,1010.17
2018-09-05T01:57:10.006Z,1010.15
2018-09-05T01:58:10.029Z,1010.19
2018-09-05T01:59:09.994Z,1010.19
2018-09-05T02:00:09.980Z,1010.24
2018-09-05T02:01:09.984Z,1010.22
2018-09-05T02:02:09.953Z,1010.26
2018-09-05T02:03:09.956Z,1010.23
2018-09-05T02:04:10.008Z,1010.27
2018-09-05T02:05:09.938Z,1010.25
2018-09-05T02:06:09.908Z,1010.24
2018-09-05T02:07:09.927Z,1010.22
2018-09-05T02:08:09.916Z,1010.21
2018-09-05T02:09:09.922Z,1010.18
2018-09-05T02:10:09.870Z,1010.17
2018-09-05T02:11:09.940Z,1010.20
2018-09-05T02:12:09.848Z,1010.22
2018-09-05T02:13:09.838Z,1010.21
2018-09-05T02:14:09.917Z,1010.20
2018-09-05T02:15:09.817Z,1010.22
2018-09-05T02:16:09.801Z,1010.23
2018-09-05T02:17:09.792Z,1010.20
2018-09-05T02:18:09.783Z,1010.19
2018-09-05T02:19:09.809Z,1010.18
2018-09-05T02:20:09.771Z,1010.21
2018-09-05T02:21:09.757Z,1010.18
2018-09-05T02:22:09.739Z,1010.18
2018-09-05T02:23:09.729Z,1010.16
2018-09-05T02:24:09.715Z,1010.19
2018-09-05T02:25:09.755Z,1010.21
2018-09-05T02:26:09.723Z,1010.18
2018-09-05T02:27:09.682Z,1010.15
2018-09-05T02:28:09.692Z,1010.18
2018-09-05T02:29:09.673Z,1010.16
2018-09-05T02:30:09.775Z,1010.18
2018-09-05T02:31:09.643Z,1010.17
2018-09-05T02:32:09.647Z,1010.13
2018-09-05T02:33:09.638Z,1010.15
2018-09-05T02:34:09.623Z,1010.13
2018-09-05T02:35:09.611Z,1010.14
2018-09-05T02:36:09.612Z,1010.15
2018-09-05T02:37:09.580Z,1010.15
2018-09-05T02:38:09.566Z,1010.12
2018-09-05T02:39:09.559Z,1010.13
2018-09-05T02:40:09.579Z,1010.13
2018-09-05T02:41:09.563Z,1010.16
2018-09-05T02:42:09.525Z,1010.12
2018-09-05T02:43:09.520Z,1010.17
2018-09-05T02:44:09.514Z,1010.15
2018-09-05T02:45:09.496Z,1010.19
2018-09-05T02:46:09.520Z,1010.19
2018-09-05T02:47:09.481Z,1010.22
2018-09-05T02:48:09.474Z,1010.16
2018-09-05T02:49:09.454Z,1010.17
2018-09-05T02:50:09.442Z,1010.18
2018-09-05T02:51:09.470Z,1010.20
2018-09-05T02:52:09.420Z,1010.22
2018-09-05T02:53:09.439Z,1010.18
2018-09-05T02:54:09.410Z,1010.15
2018-09-05T02:55:09.410Z,1010.20
2018-09-05T02:56:09.417Z,1010.22
2018-09-05T02:57:09.366Z,1010.22
2018-09-05T02:58:09.364Z,1010.25
2018-09-05T02:59:09.347Z,1010.26
2018-09-05T03:00:09.375Z,1010.23
2018-09-05T03:01:09.361Z,1010.22
2018-09-05T03:02:09.320Z,1010.23
2018-09-05T03:03:09.306Z,1010.21
2018-09-05T03:04:09.290Z,1010.22
2018-09-05T03:05:09.286Z,1010.23
2018-09-05T03:06:09.293Z,1010.20
2018-09-05T03:07:09.263Z,1010.23
2018-09-05T03:08:09.265Z,1010.21
2018-09-05T03:09:09.295Z,1010.21
2018-09-05T03:10:09.233Z,1010.17
2018-09-05T03:11:09.290Z,1010.15
2018-09-05T03:12:09.213Z,1010.14
2018-09-05T03:13:09.216Z,1010.13
2018-09-05T03:14:09.217Z,1010.13
2018-09-05T03:15:09.175Z,1010.16
2018-09-05T03:16:09.275Z,1010.14
2018-09-05T03:17:09.156Z,1010.12
2018-09-05T03:18:09.143Z,1010.13
2018-09-05T03:19:09.132Z,1010.16
2018-09-05T03:20:09.126Z,1010.15
2018-09-05T03:21:09.153Z,1010.16
2018-09-05T03:22:09.105Z,1010.20
2018-09-05T03:23:09.093Z,1010.19
2018-09-05T03:24:09.085Z,1010.17
2018-09-05T03:25:09.104Z,1010.14
2018-09-05T03:26:09.057Z,1010.17
2018-09-05T03:27:09.109Z,1010.17
2018-09-05T03:28:09.034Z,1010.15
2018-09-05T03:29:09.031Z,1010.15
2018-09-05T03:30:09.025Z,1010.14
2018-09-05T03:31:09.004Z,1010.16
2018-09-05T03:32:09.035Z,1010.17
2018-09-05T03:33:09.111Z,1010.18
2018-09-05T03:34:08.985Z,1010.15
2018-09-05T03:35:08.967Z,1010.15
2018-09-05T03:36:08.949Z,1010.19
2018-09-05T03:37:08.972Z,1010.18
2018-09-05T03:38:08.931Z,1010.22
2018-09-05T03:39:08.971Z,1010.20
2018-09-05T03:40:08.910Z,1010.22
2018-09-05T03:41:08.894Z,1010.20
2018-09-05T03:42:08.898Z,1010.23
2018-09-05T03:43:08.905Z,1010.21
2018-09-05T03:44:08.863Z,1010.23
2018-09-05T03:45:08.896Z,1010.22
2018-09-05T03:46:08.843Z,1010.23
2018-09-05T03:47:08.842Z,1010.23
2018-09-05T03:48:08.846Z,1010.27
2018-09-05T03:49:08.825Z,1010.24
2018-09-05T03:50:08.799Z,1010.25
2018-09-05T03:51:08.790Z,1010.25
2018-09-05T03:52:08.831Z,1010.24
2018-09-05T03:53:08.811Z,1010.25
2018-09-05T03:54:08.757Z,1010.25
2018-09-05T03:55:08.750Z,1010.27
2018-09-05T03:56:08.732Z,1010.23
2018-09-05T03:57:08.728Z,1010.23
2018-09-05T03:58:08.758Z,1010.25
2018-09-05T03:59:08.699Z,1010.24
2018-09-05T04:00:08.692Z,1010.26
2018-09-05T04:01:08.680Z,1010.27
2018-09-05T04:02:08.917Z,1010.26
2018-09-05T04:03:08.657Z,1010.25
2018-09-05T04:04:08.683Z,1010.22
2018-09-05T04:05:08.763Z,1010.23
2018-09-05T04:06:08.632Z,1010.21
2018-09-05T04:07:08.613Z,1010.20
2018-09-05T04:08:08.606Z,1010.19
2018-09-05T04:09:08.655Z,1010.21
2018-09-05T04:10:08.633Z,1010.22
2018-09-05T04:11:08.589Z,1010.20
2018-09-05T04:12:08.611Z,1010.20
2018-09-05T04:13:08.583Z,1010.22
2018-09-05T04:14:08.594Z,1010.22
2018-09-05T04:15:08.526Z,1010.25
2018-09-05T04:16:08.532Z,1010.23
2018-09-05T04:17:08.517Z,1010.20
2018-09-05T04:18:08.495Z,1010.15
2018-09-05T04:19:08.482Z,1010.21
2018-09-05T04:20:08.500Z,1010.20
2018-09-05T04:21:08.463Z,1010.19
2018-09-05T04:22:08.554Z,1010.15
2018-09-05T04:23:08.469Z,1010.21
2018-09-05T04:24:08.440Z,1010.18
2018-09-05T04:25:08.443Z,1010.19
2018-09-05T04:26:08.408Z,1010.17
2018-09-05T04:27:08.429Z,1010.20
2018-09-05T04:28:08.385Z,1010.17
2018-09-05T04:29:08.429Z,1010.17
2018-09-05T04:30:08.389Z,1010.14
2018-09-05T04:31:08.352Z,1010.18
2018-09-05T04:32:08.342Z,1010.19
2018-09-05T04:33:08.335Z,1010.20
2018-09-05T04:34:08.350Z,1010.18
2018-09-05T04:35:08.347Z,1010.22
2018-09-05T04:36:08.305Z,1010.15
2018-09-05T04:37:08.369Z,1010.20
2018-09-05T04:38:08.277Z,1010.16
2018-09-05T04:39:08.307Z,1010.17
2018-09-05T04:40:08.267Z,1010.16
2018-09-05T04:41:08.329Z,1010.21
2018-09-05T04:42:08.278Z,1010.19
2018-09-05T04:43:08.224Z,1010.21
2018-09-05T04:44:08.321Z,1010.18
2018-09-05T04:45:08.303Z,1010.18
2018-09-05T04:46:08.254Z,1010.18
2018-09-05T04:47:08.199Z,1010.18
2018-09-05T04:48:08.189Z,1010.20
2018-09-05T04:49:08.218Z,1010.17
2018-09-05T04:50:08.154Z,1010.19
2018-09-05T04:51:08.137Z,1010.17
2018-09-05T04:52:08.191Z,1010.14
2018-09-05T04:53:08.116Z,1010.16
2018-09-05T04:54:08.131Z,1010.19
2018-09-05T04:55:08.099Z,1010.19
2018-09-05T04:56:08.087Z,1010.19
2018-09-05T04:57:08.148Z,1010.23
2018-09-05T04:58:08.063Z,1010.19
2018-09-05T04:59:08.059Z,1010.22
2018-09-05T05:00:08.059Z,1010.21
2018-09-05T05:01:08.036Z,1010.21
2018-09-05T05:02:08.051Z,1010.24
2018-09-05T05:03:08.031Z,1010.22
2018-09-05T05:04:08.020Z,1010.19
2018-09-05T05:05:07.985Z,1010.22
2018-09-05T05:06:07.980Z,1010.21
2018-09-05T05:07:08.011Z,1010.25
2018-09-05T05:08:07.966Z,1010.27
2018-09-05T05:09:07.984Z,1010.26
2018-09-05T05:10:07.951Z,1010.25
2018-09-05T05:11:07.940Z,1010.27
2018-09-05T05:12:07.957Z,1010.30
2018-09-05T05:13:07.918Z,1010.32
2018-09-05T05:14:07.921Z,1010.29
2018-09-05T05:15:07.935Z,1010.35
2018-09-05T05:16:07.866Z,1010.37
2018-09-05T05:17:07.883Z,1010.34
2018-09-05T05:18:07.883Z,1010.35
2018-09-05T05:19:07.885Z,1010.33
2018-09-05T05:20:07.857Z,1010.37
2018-09-05T05:21:07.823Z,1010.35
2018-09-05T05:22:07.834Z,1010.37
2018-09-05T05:23:07.830Z,1010.37
2018-09-05T05:24:07.781Z,1010.40
2018-09-05T05:25:07.806Z,1010.36
2018-09-05T05:26:07.760Z,1010.34
2018-09-05T05:27:07.765Z,1010.37
2018-09-05T05:28:07.759Z,1010.37
2018-09-05T05:29:07.759Z,1010.39
2018-09-05T05:30:07.715Z,1010.33
2018-09-05T05:31:07.714Z,1010.36
2018-09-05T05:32:07.696Z,1010.34
2018-09-05T05:33:07.686Z,1010.36
2018-09-05T05:34:07.711Z,1010.34
2018-09-05T05:35:07.663Z,1010.36
2018-09-05T05:36:07.654Z,1010.37
2018-09-05T05:37:07.644Z,1010.31
2018-09-05T05:38:07.632Z,1010.36
2018-09-05T05:39:07.664Z,1010.36
2018-09-05T05:40:07.651Z,1010.40
2018-09-05T05:41:07.607Z,1010.40
2018-09-05T05:42:07.597Z,1010.41
2018-09-05T05:43:07.578Z,1010.37
2018-09-05T05:44:07.572Z,1010.38
2018-09-05T05:45:07.576Z,1010.40
2018-09-05T05:46:07.580Z,1010.35
2018-09-05T05:47:07.578Z,1010.34
2018-09-05T05:48:07.630Z,1010.39
2018-09-05T05:49:07.521Z,1010.41
2018-09-05T05:50:07.530Z,1010.37
2018-09-05T05:51:07.503Z,1010.40
2018-09-05T05:52:07.489Z,1010.42
2018-09-05T05:53:07.470Z,1010.42
2018-09-05T05:54:07.476Z,1010.41
2018-09-05T05:55:07.499Z,1010.44
2018-09-05T05:56:07.482Z,1010.41
2018-09-05T05:57:07.459Z,1010.39
2018-09-05T05:58:07.426Z,1010.42
2018-09-05T05:59:07.415Z,1010.44
2018-09-05T06:00:07.399Z,1010.40
2018-09-05T06:01:07.434Z,1010.42
2018-09-05T06:02:07.390Z,1010.47
2018-09-05T06:03:07.379Z,1010.43
2018-09-05T06:04:07.381Z,1010.50
2018-09-05T06:05:07.344Z,1010.46
2018-09-05T06:06:07.451Z,1010.45
2018-09-05T06:07:07.366Z,1010.48
2018-09-05T06:08:07.313Z,1010.44
2018-09-05T06:09:07.299Z,1010.50
2018-09-05T06:10:07.307Z,1010.50
2018-09-05T06:11:07.284Z,1010.54
2018-09-05T06:12:07.337Z,1010.50
2018-09-05T06:13:07.282Z,1010.49
2018-09-05T06:14:07.251Z,1010.51
2018-09-05T06:15:07.240Z,1010.48
2018-09-05T06:16:07.241Z,1010.47
2018-09-05T06:17:07.280Z,1010.50
2018-09-05T06:18:07.203Z,1010.45
2018-09-05T06:19:07.198Z,1010.47
2018-09-05T06:20:07.195Z,1010.47
2018-09-05T06:21:07.289Z,1010.46
2018-09-05T06:22:07.225Z,1010.46
2018-09-05T06:23:07.190Z,1010.49
2018-09-05T06:24:07.279Z,1010.49
2018-09-05T06:25:07.149Z,1010.47
2018-09-05T06:26:07.147Z,1010.51
2018-09-05T06:27:07.117Z,1010.51
2018-09-05T06:28:07.141Z,1010.55
2018-09-05T06:29:07.083Z,1010.46
2018-09-05T06:30:07.083Z,1010.53
2018-09-05T06:31:07.251Z,1010.54
2018-09-05T06:32:07.066Z,1010.54
2018-09-05T06:33:07.096Z,1010.51
2018-09-05T06:34:07.085Z,1010.54
2018-09-05T06:35:07.056Z,1010.53
2018-09-05T06:36:07.005Z,1010.57
2018-09-05T06:37:07.017Z,1010.57
2018-09-05T06:38:07.035Z,1010.59
2018-09-05T06:39:07.007Z,1010.53
2018-09-05T06:40:06.991Z,1010.56
2018-09-05T06:41:06.968Z,1010.59
2018-09-05T06:42:06.956Z,1010.54
2018-09-05T06:43:06.958Z,1010.55
2018-09-05T06:44:06.931Z,1010.56
2018-09-05T06:45:07.068Z,1010.50
2018-09-05T06:46:06.903Z,1010.52
2018-09-05T06:47:06.895Z,1010.51
2018-09-05T06:48:06.902Z,1010.52
2018-09-05T06:49:06.870Z,1010.55
2018-09-05T06:50:06.877Z,1010.53
2018-09-05T06:51:06.850Z,1010.62
2018-09-05T06:52:06.839Z,1010.58
2018-09-05T06:53:06.855Z,1010.57
2018-09-05T06:54:06.824Z,1010.57
2018-09-05T06:55:06.815Z,1010.56
2018-09-05T06:56:06.796Z,1010.53
2018-09-05T06:57:06.801Z,1010.55
2018-09-05T06:58:06.841Z,1010.55
2018-09-05T06:59:06.797Z,1010.47
2018-09-05T07:00:06.793Z,1010.56
2018-09-05T07:01:06.749Z,1010.51
2018-09-05T07:02:06.735Z,1010.50
2018-09-05T07:03:06.754Z,1010.51
2018-09-05T07:04:06.743Z,1010.47
2018-09-05T07:05:06.710Z,1010.50
2018-09-05T07:06:06.705Z,1010.50
2018-09-05T07:07:06.806Z,1010.52
2018-09-05T07:08:06.687Z,1010.52
2018-09-05T07:09:06.697Z,1010.53
2018-09-05T07:10:06.758Z,1010.52
2018-09-05T07:11:06.644Z,1010.51
2018-09-05T07:12:06.627Z,1010.55
2018-09-05T07:13:06.635Z,1010.50
2018-09-05T07:14:06.668Z,1010.52
2018-09-05T07:15:06.614Z,1010.54
2018-09-05T07:16:06.581Z,1010.50
2018-09-05T07:17:06.594Z,1010.47
2018-09-05T07:18:06.566Z,1010.49
2018-09-05T07:19:06.589Z,1010.51
2018-09-05T07:20:06.548Z,1010.49
2018-09-05T07:21:06.579Z,1010.45
2018-09-05T07:22:06.592Z,1010.49
2018-09-05T07:23:06.527Z,1010.49
2018-09-05T07:24:06.507Z,1010.49
2018-09-05T07:25:06.674Z,1010.53
2018-09-05T07:26:06.491Z,1010.55
2018-09-05T07:27:06.468Z,1010.56
2018-09-05T07:28:06.508Z,1010.56
2018-09-05T07:29:06.465Z,1010.54
2018-09-05T07:30:06.460Z,1010.54
2018-09-05T07:31:06.425Z,1010.52
2018-09-05T07:32:06.420Z,1010.48
2018-09-05T07:33:06.408Z,1010.46
2018-09-05T07:34:06.411Z,1010.47
2018-09-05T07:35:06.418Z,1010.45
2018-09-05T07:36:06.371Z,1010.45
2018-09-05T07:37:06.360Z,1010.46
2018-09-05T07:38:06.354Z,1010.45
2018-09-05T07:39:06.348Z,1010.46
2018-09-05T07:40:06.330Z,1010.44
2018-09-05T07:41:06.377Z,1010.46
2018-09-05T07:42:06.309Z,1010.43
2018-09-05T07:43:06.319Z,1010.50
2018-09-05T07:44:06.291Z,1010.45
2018-09-05T07:45:06.276Z,1010.47
2018-09-05T07:46:06.322Z,1010.45
2018-09-05T07:47:06.260Z,1010.48
2018-09-05T07:48:06.257Z,1010.48
2018-09-05T07:49:06.229Z,1010.46
2018-09-05T07:50:06.239Z,1010.47
2018-09-05T07:51:06.426Z,1010.47
2018-09-05T07:52:06.216Z,1010.48
2018-09-05T07:53:06.191Z,1010.50
2018-09-05T07:54:06.195Z,1010.48
2018-09-05T07:55:06.170Z,1010.47
2018-09-05T07:56:06.210Z,1010.49
2018-09-05T07:57:06.156Z,1010.49
2018-09-05T07:58:06.159Z,1010.52
2018-09-05T07:59:06.145Z,1010.52
2018-09-05T08:00:06.111Z,1010.51
2018-09-05T08:01:06.138Z,1010.52
2018-09-05T08:02:06.160Z,1010.53
2018-09-05T08:03:06.092Z,1010.54
2018-09-05T08:04:06.087Z,1010.48
2018-09-05T08:05:06.063Z,1010.47
2018-09-05T08:06:06.072Z,1010.51
2018-09-05T08:07:06.077Z,1010.50
2018-09-05T08:08:06.104Z,1010.50
2018-09-05T08:09:06.078Z,1010.50
2018-09-05T08:10:06.032Z,1010.52
2018-09-05T08:11:06.025Z,1010.51
2018-09-05T08:12:06.008Z,1010.48
2018-09-05T08:13:05.981Z,1010.48
2018-09-05T08:14:05.973Z,1010.51
2018-09-05T08:15:05.978Z,1010.54
2018-09-05T08:16:06.018Z,1010.53
2018-09-05T08:17:05.937Z,1010.52
2018-09-05T08:18:05.985Z,1010.52
2018-09-05T08:19:05.923Z,1010.47
2018-09-05T08:20:05.904Z,1010.48
2018-09-05T08:21:05.952Z,1010.46
2018-09-05T08:22:05.886Z,1010.45
2018-09-05T08:23:05.903Z,1010.42
2018-09-05T08:24:05.911Z,1010.42
2018-09-05T08:25:05.851Z,1010.42
2018-09-05T08:26:05.893Z,1010.44
2018-09-05T08:27:05.823Z,1010.43
2018-09-05T08:28:05.819Z,1010.42
2018-09-05T08:29:05.854Z,1010.45
2018-09-05T08:30:05.843Z,1010.49
2018-09-05T08:31:05.807Z,1010.46
2018-09-05T08:32:05.819Z,1010.45
2018-09-05T08:33:05.762Z,1010.45
2018-09-05T08:34:05.759Z,1010.45
2018-09-05T08:35:05.926Z,1010.37
2018-09-05T08:36:06.003Z,1010.39
2018-09-05T08:37:06.039Z,1010.37
2018-09-05T08:38:05.799Z,1010.39
2018-09-05T08:39:05.705Z,1010.29
2018-09-05T08:40:05.701Z,1010.35
2018-09-05T08:41:05.681Z,1010.36
2018-09-05T08:42:05.714Z,1010.37
2018-09-05T08:43:05.695Z,1010.37
2018-09-05T08:44:05.865Z,1010.31
2018-09-05T08:45:05.905Z,1010.37
2018-09-05T08:46:05.749Z,1010.34
2018-09-05T08:47:05.639Z,1010.32
2018-09-05T08:48:05.663Z,1010.34
2018-09-05T08:49:05.589Z,1010.33
2018-09-05T08:50:05.675Z,1010.34
2018-09-05T08:51:05.590Z,1010.33
2018-09-05T08:52:05.578Z,1010.36
2018-09-05T08:53:05.629Z,1010.36
2018-09-05T08:54:05.545Z,1010.29
2018-09-05T08:55:05.548Z,1010.32
2018-09-05T08:56:05.517Z,1010.31
2018-09-05T08:57:05.515Z,1010.30
2018-09-05T08:58:05.517Z,1010.33
2018-09-05T08:59:05.485Z,1010.29
2018-09-05T09:00:05.492Z,1010.31
2018-09-05T09:01:05.483Z,1010.29
2018-09-05T09:02:05.466Z,1010.28
2018-09-05T09:03:05.547Z,1010.26
2018-09-05T09:04:05.428Z,1010.27
2018-09-05T09:05:05.485Z,1010.25
2018-09-05T09:06:05.425Z,1010.28
2018-09-05T09:07:05.424Z,1010.24
2018-09-05T09:08:05.409Z,1010.27
2018-09-05T09:09:05.434Z,1010.25
2018-09-05T09:10:05.366Z,1010.23
2018-09-05T09:11:05.358Z,1010.24
2018-09-05T09:12:05.348Z,1010.18
2018-09-05T09:13:05.346Z,1010.23
2018-09-05T09:14:05.371Z,1010.24
2018-09-05T09:15:05.326Z,1010.23
2018-09-05T09:16:05.303Z,1010.29
2018-09-05T09:17:05.313Z,1010.25
2018-09-05T09:18:05.303Z,1010.25
2018-09-05T09:19:05.301Z,1010.28
2018-09-05T09:20:05.310Z,1010.26
2018-09-05T09:21:05.279Z,1010.22
2018-09-05T09:22:05.288Z,1010.22
2018-09-05T09:23:05.239Z,1010.19
2018-09-05T09:24:05.229Z,1010.21
2018-09-05T09:25:05.269Z,1010.18
2018-09-05T09:26:05.200Z,1010.14
2018-09-05T09:27:05.782Z,1010.14
2018-09-05T09:28:05.331Z,1010.13
2018-09-05T09:29:05.243Z,1010.18
2018-09-05T09:30:05.234Z,1010.10
2018-09-05T09:31:05.160Z,1010.13
2018-09-05T09:32:05.145Z,1010.13
2018-09-05T09:33:05.149Z,1010.08
2018-09-05T09:34:05.121Z,1010.11
2018-09-05T09:35:05.118Z,1010.07
2018-09-05T09:36:05.156Z,1010.07
2018-09-05T09:37:05.100Z,1010.10
2018-09-05T09:38:05.077Z,1010.11
2018-09-05T09:39:05.073Z,1010.04
2018-09-05T09:40:05.069Z,1010.04
2018-09-05T09:41:05.141Z,1010.09
2018-09-05T09:42:05.039Z,1010.07
2018-09-05T09:43:05.026Z,1010.06
2018-09-05T09:44:05.019Z,1010.10
2018-09-05T09:45:05.033Z,1010.04
2018-09-05T09:46:05.015Z,1010.01
2018-09-05T09:47:04.999Z,1010.01
2018-09-05T09:48:04.984Z,1010.02
2018-09-05T09:49:04.963Z,1010.03
2018-09-05T09:50:04.966Z,1010.00
2018-09-05T09:51:04.975Z,1010.03
2018-09-05T09:52:04.935Z,1010.00
2018-09-05T09:53:04.942Z,1010.00
2018-09-05T09:54:04.924Z,1009.99
2018-09-05T09:55:04.895Z,1009.96
2018-09-05T09:56:04.937Z,1009.99
2018-09-05T09:57:04.881Z,1010.01
2018-09-05T09:58:04.897Z,1010.00
2018-09-05T09:59:04.856Z,1010.00
2018-09-05T10:00:04.864Z,1009.99
2018-09-05T10:01:04.870Z,1009.98
2018-09-05T10:02:04.825Z,1009.93
2018-09-05T10:03:04.824Z,1009.96
2018-09-05T10:04:04.885Z,1009.93
2018-09-05T10:05:04.795Z,1009.95
2018-09-05T10:06:04.786Z,1009.97
2018-09-05T10:07:04.830Z,1009.91
2018-09-05T10:08:04.760Z,1009.89
2018-09-05T10:09:04.754Z,1009.91
2018-09-05T10:10:04.997Z,1009.86
2018-09-05T10:11:04.734Z,1009.88
2018-09-05T10:12:04.749Z,1009.86
2018-09-05T10:13:04.717Z,1009.86
2018-09-05T10:14:04.703Z,1009.85
2018-09-05T10:15:04.701Z,1009.85
2018-09-05T10:16:04.695Z,1009.81
2018-09-05T10:17:04.708Z,1009.80
2018-09-05T10:18:04.657Z,1009.79
2018-09-05T10:19:04.651Z,1009.81
2018-09-05T10:20:04.633Z,1009.81
2018-09-05T10:21:04.654Z,1009.77
2018-09-05T10:22:04.676Z,1009.75
2018-09-05T10:23:04.602Z,1009.78
2018-09-05T10:24:04.592Z,1009.77
2018-09-05T10:25:04.590Z,1009.73
2018-09-05T10:26:04.604Z,1009.71
2018-09-05T10:27:04.601Z,1009.70
2018-09-05T10:28:04.597Z,1009.73
2018-09-05T10:29:04.547Z,1009.65
2018-09-05T10:30:04.546Z,1009.67
2018-09-05T10:31:04.548Z,1009.64
2018-09-05T10:32:04.509Z,1009.66
2018-09-05T10:33:04.527Z,1009.63
2018-09-05T10:34:04.528Z,1009.62
2018-09-05T10:35:04.483Z,1009.63
2018-09-05T10:36:04.491Z,1009.63
2018-09-05T10:37:04.475Z,1009.64
2018-09-05T10:38:04.493Z,1009.66
2018-09-05T10:39:04.440Z,1009.68
2018-09-05T10:40:04.498Z,1009.64
2018-09-05T10:41:04.417Z,1009.61
2018-09-05T10:42:04.407Z,1009.61
2018-09-05T10:43:04.445Z,1009.58
2018-09-05T10:44:04.445Z,1009.59
2018-09-05T10:45:04.384Z,1009.55
2018-09-05T10:46:04.366Z,1009.55
2018-09-05T10:47:04.355Z,1009.52
2018-09-05T10:48:04.377Z,1009.49
2018-09-05T10:49:04.348Z,1009.50
2018-09-05T10:50:04.345Z,1009.49
2018-09-05T10:51:04.323Z,1009.51
2018-09-05T10:52:04.319Z,1009.47
2018-09-05T10:53:04.359Z,1009.45
2018-09-05T10:54:04.290Z,1009.44
2018-09-05T10:55:04.298Z,1009.46
2018-09-05T10:56:04.265Z,1009.43
2018-09-05T10:57:04.276Z,1009.46
2018-09-05T10:58:04.296Z,1009.41
2018-09-05T10:59:04.238Z,1009.42
2018-09-05T11:00:04.244Z,1009.40
2018-09-05T11:01:04.256Z,1009.37
2018-09-05T11:02:04.207Z,1009.42
2018-09-05T11:03:04.267Z,1009.39
2018-09-05T11:04:04.210Z,1009.41
2018-09-05T11:05:04.195Z,1009.41
2018-09-05T11:06:04.170Z,1009.39
2018-09-05T11:07:04.165Z,1009.37
2018-09-05T11:08:04.154Z,1009.37
2018-09-05T11:09:04.187Z,1009.38
2018-09-05T11:10:04.122Z,1009.34
2018-09-05T11:11:04.110Z,1009.36
2018-09-05T11:12:04.097Z,1009.35
2018-09-05T11:13:04.089Z,1009.36
2018-09-05T11:14:04.077Z,1009.30
2018-09-05T11:15:04.098Z,1009.27
2018-09-05T11:16:04.065Z,1009.28
2018-09-05T11:17:04.058Z,1009.31
2018-09-05T11:18:04.045Z,1009.31
2018-09-05T11:19:04.043Z,1009.25
2018-09-05T11:20:04.051Z,1009.23
2018-09-05T11:21:04.012Z,1009.26
2018-09-05T11:22:03.996Z,1009.19
2018-09-05T11:23:03.995Z,1009.21
2018-09-05T11:24:03.986Z,1009.18
2018-09-05T11:25:03.990Z,1009.18
2018-09-05T11:26:03.963Z,1009.20
2018-09-05T11:27:03.951Z,1009.15
2018-09-05T11:28:03.936Z,1009.16
2018-09-05T11:29:04.023Z,1009.12
2018-09-05T11:30:03.979Z,1009.09
2018-09-05T11:31:03.902Z,1009.11
2018-09-05T11:32:03.892Z,1009.09
2018-09-05T11:33:03.880Z,1009.12
2018-09-05T11:34:03.872Z,1009.14
2018-09-05T11:35:03.868Z,1009.16
2018-09-05T11:36:03.882Z,1009.06
2018-09-05T11:37:03.937Z,1009.07
2018-09-05T11:38:03.829Z,1009.05
2018-09-05T11:39:03.820Z,1009.05
2018-09-05T11:40:03.810Z,1009.06
2018-09-05T11:41:03.825Z,1009.07
2018-09-05T11:42:03.800Z,1009.06
2018-09-05T11:43:03.787Z,1009.07
2018-09-05T11:44:03.771Z,1009.07
2018-09-05T11:45:03.758Z,1009.08
2018-09-05T11:46:03.833Z,1009.03
2018-09-05T11:47:03.742Z,1009.04
2018-09-05T11:48:03.765Z,1009.14
2018-09-05T11:49:03.722Z,1009.09
2018-09-05T11:50:03.709Z,1009.06
2018-09-05T11:51:03.697Z,1009.30
2018-09-05T11:52:03.715Z,1009.01
2018-09-05T11:53:03.702Z,1008.98
2018-09-05T11:54:03.664Z,1008.96
2018-09-05T11:55:03.655Z,1009.00
2018-09-05T11:56:03.644Z,1008.98
2018-09-05T11:57:03.667Z,1008.97
2018-09-05T11:58:03.626Z,1009.07
2018-09-05T11:59:03.615Z,1008.95
2018-09-05T12:00:03.603Z,1008.98
2018-09-05T12:01:03.593Z,1009.01
2018-09-05T12:02:03.614Z,1008.99
2018-09-05T12:03:03.573Z,1008.99
2018-09-05T12:04:03.563Z,1009.02
2018-09-05T12:05:03.689Z,1009.04